sensor_id;sensor_type;location;lat;lon;timestamp;P1;durP1;ratioP1;P2;durP2;ratioP2
9234;SDS011;4652;42.716;23.218;2023-08-06T00:00:29;4.43;;;4.03;;
9234;SDS011;4652;42.716;23.218;2023-08-06T00:07:11;4.93;;;4.17;;
9234;SDS011;4652;42.716;23.218;2023-08-06T00:13:54;5.40;;;4.33;;
9234;SDS011;4652;42.716;23.218;2023-08-06T00:20:39;4.77;;;3.60;;
9234;SDS011;4652;42.716;23.218;2023-08-06T00:27:21;4.03;;;3.70;;
9234;SDS011;4652;42.716;23.218;2023-08-06T00:34:03;7.27;;;4.17;;
9234;SDS011;4652;42.716;23.218;2023-08-06T00:40:47;4.80;;;4.27;;
9234;SDS011;4652;42.716;23.218;2023-08-06T00:47:28;5.90;;;5.00;;
9234;SDS011;4652;42.716;23.218;2023-08-06T00:54:11;5.50;;;4.73;;
9234;SDS011;4652;42.716;23.218;2023-08-06T01:18:39;5.47;;;4.67;;
9234;SDS011;4652;42.716;23.218;2023-08-06T01:25:26;5.07;;;4.57;;
9234;SDS011;4652;42.716;23.218;2023-08-06T01:32:13;6.23;;;4.80;;
9234;SDS011;4652;42.716;23.218;2023-08-06T01:38:56;8.13;;;5.13;;
9234;SDS011;4652;42.716;23.218;2023-08-06T01:45:40;5.73;;;5.10;;
9234;SDS011;4652;42.716;23.218;2023-08-06T01:52:21;6.60;;;5.10;;
9234;SDS011;4652;42.716;23.218;2023-08-06T01:59:03;6.47;;;4.83;;
9234;SDS011;4652;42.716;23.218;2023-08-06T02:05:47;5.50;;;5.00;;
9234;SDS011;4652;42.716;23.218;2023-08-06T02:12:29;7.27;;;5.30;;
9234;SDS011;4652;42.716;23.218;2023-08-06T02:19:11;5.33;;;4.83;;
9234;SDS011;4652;42.716;23.218;2023-08-06T02:25:58;6.57;;;5.40;;
9234;SDS011;4652;42.716;23.218;2023-08-06T02:32:41;7.20;;;6.00;;
9234;SDS011;4652;42.716;23.218;2023-08-06T02:39:22;8.40;;;5.73;;
9234;SDS011;4652;42.716;23.218;2023-08-06T02:46:05;6.43;;;5.20;;
9234;SDS011;4652;42.716;23.218;2023-08-06T02:52:47;7.33;;;5.63;;
9234;SDS011;4652;42.716;23.218;2023-08-06T03:55:57;6.10;;;4.83;;
9234;SDS011;4652;42.716;23.218;2023-08-06T04:02:40;5.40;;;4.90;;
9234;SDS011;4652;42.716;23.218;2023-08-06T04:09:22;6.80;;;4.90;;
9234;SDS011;4652;42.716;23.218;2023-08-06T04:16:05;6.37;;;5.20;;
9234;SDS011;4652;42.716;23.218;2023-08-06T04:22:47;5.70;;;5.10;;
9234;SDS011;4652;42.716;23.218;2023-08-06T04:29:29;7.03;;;5.27;;
9234;SDS011;4652;42.716;23.218;2023-08-06T04:36:13;6.73;;;4.73;;
9234;SDS011;4652;42.716;23.218;2023-08-06T04:42:54;4.60;;;4.20;;
9234;SDS011;4652;42.716;23.218;2023-08-06T04:49:36;5.40;;;4.63;;
9234;SDS011;4652;42.716;23.218;2023-08-06T04:56:19;4.17;;;3.80;;
9234;SDS011;4652;42.716;23.218;2023-08-06T05:03:01;6.13;;;4.30;;
9234;SDS011;4652;42.716;23.218;2023-08-06T05:09:44;7.57;;;6.17;;
9234;SDS011;4652;42.716;23.218;2023-08-06T05:16:27;9.17;;;8.00;;
9234;SDS011;4652;42.716;23.218;2023-08-06T05:23:09;9.93;;;9.03;;
9234;SDS011;4652;42.716;23.218;2023-08-06T05:29:54;7.77;;;7.07;;
9234;SDS011;4652;42.716;23.218;2023-08-06T05:36:38;6.10;;;5.60;;
9234;SDS011;4652;42.716;23.218;2023-08-06T05:43:20;4.27;;;3.97;;
9234;SDS011;4652;42.716;23.218;2023-08-06T05:50:02;3.13;;;2.93;;
9234;SDS011;4652;42.716;23.218;2023-08-06T05:56:46;2.30;;;2.03;;
9234;SDS011;4652;42.716;23.218;2023-08-06T06:03:28;2.53;;;2.33;;
9234;SDS011;4652;42.716;23.218;2023-08-06T06:10:10;2.42;;;2.22;;
9234;SDS011;4652;42.716;23.218;2023-08-06T06:16:53;2.05;;;1.95;;
9234;SDS011;4652;42.716;23.218;2023-08-06T06:23:35;2.75;;;2.03;;
9234;SDS011;4652;42.716;23.218;2023-08-06T06:30:17;3.85;;;2.35;;
9234;SDS011;4652;42.716;23.218;2023-08-06T06:37:01;3.75;;;3.35;;
9234;SDS011;4652;42.716;23.218;2023-08-06T06:43:44;2.92;;;2.63;;
9234;SDS011;4652;42.716;23.218;2023-08-06T06:50:26;3.10;;;2.80;;
9234;SDS011;4652;42.716;23.218;2023-08-06T06:57:09;2.95;;;2.72;;
9234;SDS011;4652;42.716;23.218;2023-08-06T09:31:54;2.13;;;1.95;;
9234;SDS011;4652;42.716;23.218;2023-08-06T09:38:37;2.92;;;2.70;;
9234;SDS011;4652;42.716;23.218;2023-08-06T09:45:20;3.00;;;2.60;;
9234;SDS011;4652;42.716;23.218;2023-08-06T09:52:04;3.20;;;2.40;;
9234;SDS011;4652;42.716;23.218;2023-08-06T09:58:47;2.97;;;2.78;;
9234;SDS011;4652;42.716;23.218;2023-08-06T10:05:31;2.53;;;2.30;;
9234;SDS011;4652;42.716;23.218;2023-08-06T10:12:16;2.60;;;2.40;;
9234;SDS011;4652;42.716;23.218;2023-08-06T10:19:00;2.45;;;2.33;;
9234;SDS011;4652;42.716;23.218;2023-08-06T10:25:43;4.07;;;3.80;;
9234;SDS011;4652;42.716;23.218;2023-08-06T10:39:32;2.72;;;2.53;;
9234;SDS011;4652;42.716;23.218;2023-08-06T10:46:21;2.72;;;2.53;;
9234;SDS011;4652;42.716;23.218;2023-08-06T10:53:06;3.08;;;2.70;;
9234;SDS011;4652;42.716;23.218;2023-08-06T10:59:48;12.00;;;6.00;;
9234;SDS011;4652;42.716;23.218;2023-08-06T11:06:31;5.57;;;4.90;;
9234;SDS011;4652;42.716;23.218;2023-08-06T11:13:17;7.20;;;4.88;;
9234;SDS011;4652;42.716;23.218;2023-08-06T11:20:00;4.53;;;4.20;;
9234;SDS011;4652;42.716;23.218;2023-08-06T11:26:44;4.43;;;4.10;;
9234;SDS011;4652;42.716;23.218;2023-08-06T11:33:27;5.00;;;4.60;;
9234;SDS011;4652;42.716;23.218;2023-08-06T11:40:10;4.75;;;4.28;;
9234;SDS011;4652;42.716;23.218;2023-08-06T11:46:52;5.10;;;4.50;;
9234;SDS011;4652;42.716;23.218;2023-08-06T11:53:37;5.00;;;4.50;;
9234;SDS011;4652;42.716;23.218;2023-08-06T12:00:19;5.30;;;4.80;;
9234;SDS011;4652;42.716;23.218;2023-08-06T12:07:06;6.47;;;5.97;;
9234;SDS011;4652;42.716;23.218;2023-08-06T12:13:51;7.00;;;6.32;;
9234;SDS011;4652;42.716;23.218;2023-08-06T12:20:33;8.13;;;7.25;;
9234;SDS011;4652;42.716;23.218;2023-08-06T12:27:15;6.68;;;6.07;;
9234;SDS011;4652;42.716;23.218;2023-08-06T12:33:59;6.05;;;5.65;;
9234;SDS011;4652;42.716;23.218;2023-08-06T12:40:41;6.97;;;6.28;;
9234;SDS011;4652;42.716;23.218;2023-08-06T12:47:23;5.97;;;5.57;;
9234;SDS011;4652;42.716;23.218;2023-08-06T12:54:06;6.47;;;5.97;;
9234;SDS011;4652;42.716;23.218;2023-08-06T14:25:11;5.65;;;4.82;;
9234;SDS011;4652;42.716;23.218;2023-08-06T14:31:53;5.72;;;5.13;;
9234;SDS011;4652;42.716;23.218;2023-08-06T14:38:35;5.20;;;4.70;;
9234;SDS011;4652;42.716;23.218;2023-08-06T14:45:18;5.07;;;4.30;;
9234;SDS011;4652;42.716;23.218;2023-08-06T14:52:00;6.00;;;4.57;;
9234;SDS011;4652;42.716;23.218;2023-08-06T14:58:42;4.47;;;4.07;;
9234;SDS011;4652;42.716;23.218;2023-08-06T15:05:25;8.65;;;4.72;;
9234;SDS011;4652;42.716;23.218;2023-08-06T15:12:07;4.82;;;4.35;;
9234;SDS011;4652;42.716;23.218;2023-08-06T15:18:52;4.32;;;4.00;;
9234;SDS011;4652;42.716;23.218;2023-08-06T15:25:39;4.22;;;3.83;;
9234;SDS011;4652;42.716;23.218;2023-08-06T15:32:24;3.95;;;3.65;;
9234;SDS011;4652;42.716;23.218;2023-08-06T15:39:07;4.93;;;3.53;;
9234;SDS011;4652;42.716;23.218;2023-08-06T15:45:50;4.53;;;3.72;;
9234;SDS011;4652;42.716;23.218;2023-08-06T15:52:32;4.20;;;3.75;;
9234;SDS011;4652;42.716;23.218;2023-08-06T15:59:21;7.20;;;4.15;;
9234;SDS011;4652;42.716;23.218;2023-08-06T16:06:05;4.80;;;4.40;;
9234;SDS011;4652;42.716;23.218;2023-08-06T16:12:47;4.63;;;3.60;;
9234;SDS011;4652;42.716;23.218;2023-08-06T16:19:29;1.30;;;1.20;;
9234;SDS011;4652;42.716;23.218;2023-08-06T16:26:13;2.63;;;2.40;;
9234;SDS011;4652;42.716;23.218;2023-08-06T16:32:55;2.38;;;1.23;;
9234;SDS011;4652;42.716;23.218;2023-08-06T16:39:37;1.25;;;0.95;;
9234;SDS011;4652;42.716;23.218;2023-08-06T16:46:20;1.73;;;1.10;;
9234;SDS011;4652;42.716;23.218;2023-08-06T16:53:02;0.95;;;0.93;;
9234;SDS011;4652;42.716;23.218;2023-08-06T16:59:44;1.92;;;0.90;;
9234;SDS011;4652;42.716;23.218;2023-08-06T17:06:28;1.80;;;1.00;;
9234;SDS011;4652;42.716;23.218;2023-08-06T17:13:10;2.38;;;0.80;;
9234;SDS011;4652;42.716;23.218;2023-08-06T17:19:52;0.90;;;0.68;;
9234;SDS011;4652;42.716;23.218;2023-08-06T17:26:35;0.85;;;0.85;;
9234;SDS011;4652;42.716;23.218;2023-08-06T17:33:17;1.05;;;0.80;;
9234;SDS011;4652;42.716;23.218;2023-08-06T17:39:59;1.02;;;0.82;;
9234;SDS011;4652;42.716;23.218;2023-08-06T17:46:42;1.75;;;0.90;;
9234;SDS011;4652;42.716;23.218;2023-08-06T17:53:24;1.00;;;0.80;;
9234;SDS011;4652;42.716;23.218;2023-08-06T18:00:07;1.40;;;0.70;;
9234;SDS011;4652;42.716;23.218;2023-08-06T18:06:51;0.57;;;0.57;;
9234;SDS011;4652;42.716;23.218;2023-08-06T18:13:33;0.75;;;0.70;;
9234;SDS011;4652;42.716;23.218;2023-08-06T18:20:15;0.80;;;0.80;;
9234;SDS011;4652;42.716;23.218;2023-08-06T18:26:58;1.52;;;0.90;;
9234;SDS011;4652;42.716;23.218;2023-08-06T18:33:40;5.03;;;3.70;;
9234;SDS011;4652;42.716;23.218;2023-08-06T18:40:22;3.25;;;2.22;;
9234;SDS011;4652;42.716;23.218;2023-08-06T18:47:06;7.80;;;3.95;;
9234;SDS011;4652;42.716;23.218;2023-08-06T18:53:47;3.33;;;1.70;;
9234;SDS011;4652;42.716;23.218;2023-08-06T20:25:12;1.03;;;0.70;;
9234;SDS011;4652;42.716;23.218;2023-08-06T20:31:54;0.50;;;0.50;;
9234;SDS011;4652;42.716;23.218;2023-08-06T20:38:36;1.70;;;0.73;;
9234;SDS011;4652;42.716;23.218;2023-08-06T20:45:19;0.60;;;0.60;;
9234;SDS011;4652;42.716;23.218;2023-08-06T20:52:01;1.10;;;0.67;;
9234;SDS011;4652;42.716;23.218;2023-08-06T20:58:44;0.60;;;0.60;;
9234;SDS011;4652;42.716;23.218;2023-08-06T21:05:27;1.00;;;0.70;;
9234;SDS011;4652;42.716;23.218;2023-08-06T21:12:09;0.93;;;0.70;;
9234;SDS011;4652;42.716;23.218;2023-08-06T21:18:51;0.60;;;0.60;;
9234;SDS011;4652;42.716;23.218;2023-08-06T21:25:35;0.97;;;0.77;;
9234;SDS011;4652;42.716;23.218;2023-08-06T21:32:17;1.00;;;0.80;;
9234;SDS011;4652;42.716;23.218;2023-08-06T21:38:59;0.60;;;0.60;;
9234;SDS011;4652;42.716;23.218;2023-08-06T21:45:42;1.03;;;0.80;;
9234;SDS011;4652;42.716;23.218;2023-08-06T21:52:24;0.90;;;0.90;;
9234;SDS011;4652;42.716;23.218;2023-08-06T21:59:07;0.90;;;0.90;;
9234;SDS011;4652;42.716;23.218;2023-08-06T22:05:50;1.07;;;0.80;;
9234;SDS011;4652;42.716;23.218;2023-08-06T22:12:32;0.90;;;0.90;;
9234;SDS011;4652;42.716;23.218;2023-08-06T22:19:15;1.20;;;1.10;;
9234;SDS011;4652;42.716;23.218;2023-08-06T22:25:58;1.10;;;1.00;;
9234;SDS011;4652;42.716;23.218;2023-08-06T22:32:40;1.47;;;1.20;;
9234;SDS011;4652;42.716;23.218;2023-08-06T22:39:22;1.30;;;1.17;;
9234;SDS011;4652;42.716;23.218;2023-08-06T22:46:05;2.40;;;1.10;;
9234;SDS011;4652;42.716;23.218;2023-08-06T22:52:47;1.30;;;1.20;;
9234;SDS011;4652;42.716;23.218;2023-08-06T22:59:29;1.13;;;1.13;;
9234;SDS011;4652;42.716;23.218;2023-08-06T23:06:13;1.47;;;1.10;;
9234;SDS011;4652;42.716;23.218;2023-08-06T23:12:55;1.20;;;1.10;;
9234;SDS011;4652;42.716;23.218;2023-08-06T23:19:37;1.17;;;1.07;;
9234;SDS011;4652;42.716;23.218;2023-08-06T23:26:20;1.17;;;1.07;;
9234;SDS011;4652;42.716;23.218;2023-08-06T23:33:02;1.20;;;1.10;;
9234;SDS011;4652;42.716;23.218;2023-08-06T23:39:44;1.67;;;1.13;;
9234;SDS011;4652;42.716;23.218;2023-08-06T23:46:28;3.00;;;1.30;;
9234;SDS011;4652;42.716;23.218;2023-08-06T23:53:10;1.40;;;1.30;;
9234;SDS011;4652;42.716;23.218;2023-08-06T23:59:52;2.30;;;2.00;;
